Time;durP1;ratioP1;P1;durP2;ratioP2;P2;SDS_P1;SDS_P2;PMS_P1;PMS_P2;Temp;Humidity;BMP_temperature;BMP_pressure;BME280_temperature;BME280_humidity;BME280_pressure;Samples;Min_cycle;Max_cycle;Signal;HPM_P1;HPM_P2
2022/01/14 00:01:07;;;;;;;30.50;11.90;;;;;;;3.59;81.97;101544.86;105652;1273;333908;-62
2022/01/14 00:03:35;;;;;;;31.60;11.00;;;;;;;3.58;82.00;101537.13;105846;1273;24384;-61
2022/01/14 00:06:04;;;;;;;29.90;10.40;;;;;;;3.57;82.06;101540.13;105622;1274;22538;-62
2022/01/14 00:08:32;;;;;;;28.60;10.90;;;;;;;3.56;82.03;101553.29;105664;1273;25387;-61
2022/01/14 00:11:00;;;;;;;27.70;10.30;;;;;;;3.55;81.97;101553.15;105598;1274;25539;-63
2022/01/14 00:13:49;;;;;;;32.60;9.90;;;;;;;3.55;82.04;101564.75;105804;1273;24465;-62
2022/01/14 00:16:18;;;;;;;31.10;10.90;;;;;;;3.55;81.99;101566.48;105589;1273;22561;-60
2022/01/14 00:18:46;;;;;;;31.40;12.00;;;;;;;3.54;82.05;101566.50;105732;1273;22529;-62
2022/01/14 00:21:14;;;;;;;29.20;10.60;;;;;;;3.54;82.03;101576.36;105664;1273;24373;-60
2022/01/14 00:23:44;;;;;;;30.80;11.10;;;;;;;3.53;81.99;101570.98;105682;1274;22536;-60
2022/01/14 00:31:51;;;;;;;33.00;13.40;;;;;;;3.51;82.02;101574.23;106139;1268;23941;-60
2022/01/14 00:34:19;;;;;;;35.50;11.40;;;;;;;3.51;82.02;101565.48;105960;1268;23271;-62
2022/01/14 00:36:47;;;;;;;31.00;10.80;;;;;;;3.50;81.98;101566.73;105974;1268;24218;-61
2022/01/14 00:39:16;;;;;;;28.40;10.30;;;;;;;3.49;82.02;101568.71;106043;1268;22570;-61
2022/01/14 00:41:44;;;;;;;31.60;12.80;;;;;;;3.48;82.04;101567.05;106014;1268;25333;-61
2022/01/14 00:44:14;;;;;;;36.20;12.80;;;;;;;3.47;82.03;101564.69;106029;1268;25435;-61
2022/01/14 00:46:45;;;;;;;27.60;11.00;;;;;;;3.46;82.05;101558.30;106112;1268;25426;-61
2022/01/14 00:49:14;;;;;;;32.70;10.60;;;;;;;3.45;82.02;101554.92;106229;1268;25380;-60
2022/01/14 00:51:42;;;;;;;25.50;7.40;;;;;;;3.43;82.08;101555.31;106061;1268;24158;-61
2022/01/14 00:54:12;;;;;;;28.30;10.70;;;;;;;3.42;82.12;101553.58;105991;1268;22695;-62
2022/01/14 00:57:03;;;;;;;29.20;10.80;;;;;;;3.42;82.15;101551.93;106096;1268;24224;-61
2022/01/14 00:59:32;;;;;;;27.40;9.60;;;;;;;3.41;82.14;101552.25;105883;1268;22611;-62
2022/01/14 01:02:01;;;;;;;27.30;9.90;;;;;;;3.40;82.10;101558.40;106036;1268;24400;-61
2022/01/14 01:04:33;;;;;;;31.30;10.20;;;;;;;3.39;82.09;101558.88;106160;1268;24770;-61
2022/01/14 01:07:02;;;;;;;25.80;8.70;;;;;;;3.38;82.15;101564.08;105997;1268;25372;-60
2022/01/14 01:09:31;;;;;;;28.90;10.70;;;;;;;3.36;82.12;101560.62;105925;1268;22705;-60
2022/01/14 01:12:11;;;;;;;27.00;9.40;;;;;;;3.35;82.13;101562.75;106115;1268;24319;-61
2022/01/14 01:14:45;;;;;;;26.70;7.90;;;;;;;3.34;82.08;101564.41;106184;1268;25362;-61
2022/01/14 01:17:14;;;;;;;29.00;8.40;;;;;;;3.33;82.10;101564.41;106019;1268;22560;-61
2022/01/14 01:19:43;;;;;;;23.90;8.20;;;;;;;3.30;82.09;101568.59;106038;1268;25621;-62
2022/01/14 01:22:11;;;;;;;27.10;9.60;;;;;;;3.29;82.00;101576.80;106021;1268;22541;-61
2022/01/14 01:24:40;;;;;;;28.60;8.30;;;;;;;3.28;81.88;101567.73;105996;1268;25515;-62
2022/01/14 01:27:09;;;;;;;28.80;10.60;;;;;;;3.27;81.89;101566.48;106012;1268;25336;-61
2022/01/14 01:29:50;;;;;;;27.20;9.60;;;;;;;3.26;81.82;101566.78;106099;1268;22615;-60
2022/01/14 01:32:18;;;;;;;32.40;9.10;;;;;;;3.24;81.82;101563.79;105989;1268;22564;-61
2022/01/14 01:34:46;;;;;;;28.90;10.60;;;;;;;3.22;81.81;101559.45;106010;1268;22560;-61
2022/01/14 01:37:15;;;;;;;33.70;10.90;;;;;;;3.22;81.83;101565.22;106015;1268;25379;-61
2022/01/14 01:39:43;;;;;;;33.20;11.60;;;;;;;3.19;81.81;101560.98;106044;1268;22557;-61
2022/01/14 01:42:11;;;;;;;31.00;10.60;;;;;;;3.19;81.93;101562.15;106073;1268;22715;-60
2022/01/14 01:44:43;;;;;;;33.20;12.30;;;;;;;3.16;81.93;101562.63;105990;1268;25360;-62
2022/01/14 01:47:11;;;;;;;33.20;10.90;;;;;;;3.16;82.01;101553.02;106148;1268;22548;-57
2022/01/14 01:49:40;;;;;;;30.70;10.80;;;;;;;3.16;82.00;101551.75;106046;1268;24259;-61
2022/01/14 01:52:09;;;;;;;29.70;11.00;;;;;;;3.14;81.98;101553.65;106007;1268;22547;-60
2022/01/14 01:54:37;;;;;;;31.90;11.80;;;;;;;3.13;82.00;101551.83;106164;1268;23191;-61
2022/01/14 01:57:07;;;;;;;37.00;12.90;;;;;;;3.12;82.09;101551.27;106099;1268;24322;-62
2022/01/14 01:59:35;;;;;;;31.40;11.30;;;;;;;3.11;82.11;101552.55;106283;1268;22550;-61
2022/01/14 02:02:04;;;;;;;39.00;15.40;;;;;;;3.10;82.13;101564.22;106138;1268;22799;-63
2022/01/14 02:04:32;;;;;;;34.10;11.50;;;;;;;3.10;82.19;101571.38;106224;1268;25368;-61
2022/01/14 02:07:00;;;;;;;35.90;13.30;;;;;;;3.09;82.12;101564.61;106014;1268;25345;-62
2022/01/14 02:09:28;;;;;;;36.90;13.00;;;;;;;3.09;82.11;101562.79;106071;1268;22591;-60
2022/01/14 02:11:57;;;;;;;37.60;11.00;;;;;;;3.09;82.08;101560.03;106061;1268;22545;-61
2022/01/14 02:14:40;;;;;;;36.30;12.40;;;;;;;3.08;82.03;101557.74;106198;1268;24322;-61
2022/01/14 02:17:29;;;;;;;35.70;12.90;;;;;;;3.07;82.08;101559.58;106027;1268;22583;-60
2022/01/14 02:22:49;;;;;;;38.40;12.80;;;;;;;3.07;82.10;101558.77;106037;1268;22634;-60
2022/01/14 02:25:28;;;;;;;37.20;12.50;;;;;;;3.07;82.14;101562.17;106061;1268;26503;-60
2022/01/14 02:27:59;;;;;;;36.00;14.70;;;;;;;3.08;82.16;101553.02;106045;1268;22544;-60
2022/01/14 02:30:26;;;;;;;;;;;;;;;3.08;82.19;101549.96;106124;1271;24288;-60
2022/01/14 02:32:54;;;;;;;39.90;14.40;;;;;;;3.08;82.18;101549.16;105993;1268;22596;-61
2022/01/14 02:35:23;;;;;;;34.50;12.20;;;;;;;3.07;82.30;101548.61;106135;1268;26739;-61
2022/01/14 02:37:52;;;;;;;39.50;14.20;;;;;;;3.08;82.32;101542.78;106038;1268;25525;-62
2022/01/14 02:40:23;;;;;;;33.30;11.70;;;;;;;3.07;82.37;101541.20;106242;1268;24319;-61
2022/01/14 02:42:51;;;;;;;37.10;12.40;;;;;;;3.08;82.45;101541.90;106219;1268;22690;-60
2022/01/14 02:45:21;;;;;;;39.40;13.30;;;;;;;3.08;82.49;101539.55;106061;1268;22550;-62
2022/01/14 02:47:50;;;;;;;32.90;12.20;;;;;;;3.09;82.50;101534.19;106185;1265;24317;-61
2022/01/14 02:50:21;;;;;;;37.50;12.90;;;;;;;3.09;82.56;101535.52;106055;1268;26146;-61
2022/01/14 02:53:00;;;;;;;35.10;12.90;;;;;;;3.09;82.61;101536.08;106112;1268;22577;-62
2022/01/14 02:55:31;;;;;;;32.60;12.30;;;;;;;3.09;82.63;101524.09;106007;1268;22989;-60
2022/01/14 02:58:00;;;;;;;34.10;10.30;;;;;;;3.10;82.75;101524.89;106014;1268;22698;-60
2022/01/14 03:00:32;;;;;;;35.40;12.70;;;;;;;3.10;82.88;101515.80;106228;1268;22556;-61
2022/01/14 03:03:01;;;;;;;38.20;12.80;;;;;;;3.10;82.85;101513.45;106118;1268;22620;-61
2022/01/14 03:05:31;;;;;;;32.90;11.00;;;;;;;3.10;82.88;101507.84;106079;1268;23422;-62
2022/01/14 03:08:00;;;;;;;41.80;13.80;;;;;;;3.10;82.94;101514.63;106145;1268;22541;-60
2022/01/14 03:10:29;;;;;;;39.60;13.70;;;;;;;3.10;82.87;101513.44;106182;1268;25330;-62
2022/01/14 03:12:58;;;;;;;38.00;14.50;;;;;;;3.11;82.98;101509.89;106213;1270;25545;-61
2022/01/14 03:15:26;;;;;;;40.70;15.50;;;;;;;3.12;82.95;101513.77;106236;1268;24259;-61
2022/01/14 03:17:54;;;;;;;29.40;11.00;;;;;;;3.12;82.98;101510.70;106097;1268;25471;-62
2022/01/14 03:20:43;;;;;;;34.00;13.30;;;;;;;3.12;83.10;101508.23;105955;1268;22532;-61
2022/01/14 03:23:13;;;;;;;38.60;13.60;;;;;;;3.12;83.18;101513.05;106031;1268;25269;-61
2022/01/14 03:25:51;;;;;;;35.00;13.20;;;;;;;3.12;83.28;101506.27;106069;1268;22543;-60
2022/01/14 03:28:21;;;;;;;31.90;10.50;;;;;;;3.12;83.30;101509.81;106000;1271;22573;-62
2022/01/14 03:30:50;;;;;;;36.60;12.70;;;;;;;3.12;83.36;101504.38;106090;1269;22628;-61
2022/01/14 03:33:19;;;;;;;32.20;12.70;;;;;;;3.11;83.36;101498.95;106169;1270;24228;-62
2022/01/14 03:35:48;;;;;;;39.40;14.70;;;;;;;3.11;83.32;101500.67;106162;1268;22646;-61
2022/01/14 03:38:17;;;;;;;34.10;12.80;;;;;;;3.11;83.37;101500.20;106176;1271;22776;-62
2022/01/14 03:40:46;;;;;;;35.70;12.60;;;;;;;3.11;83.37;101495.31;106073;1268;24231;-62
2022/01/14 03:43:14;;;;;;;33.80;12.40;;;;;;;3.11;83.43;101496.81;105982;1271;24275;-62
2022/01/14 03:45:42;;;;;;;31.80;12.40;;;;;;;3.11;83.45;101491.91;105955;1271;22547;-60
2022/01/14 03:48:10;;;;;;;35.00;12.20;;;;;;;3.10;83.50;101491.05;105982;1271;26558;-61
2022/01/14 03:50:38;;;;;;;37.20;13.80;;;;;;;3.10;83.46;101488.14;106012;1270;25311;-61
2022/01/14 03:53:07;;;;;;;37.10;13.40;;;;;;;3.09;83.46;101482.71;106046;1271;22551;-62
2022/01/14 03:55:35;;;;;;;31.10;11.80;;;;;;;3.09;83.48;101476.23;106083;1268;25322;-61
2022/01/14 03:58:03;;;;;;;35.00;12.10;;;;;;;3.08;83.41;101464.11;106014;1271;22762;-61
2022/01/14 04:00:33;;;;;;;37.90;13.40;;;;;;;3.08;83.44;101453.86;105970;1270;25532;-62
2022/01/14 04:03:05;;;;;;;32.50;11.80;;;;;;;3.07;83.45;101452.28;105982;1271;24434;-62
2022/01/14 04:05:36;;;;;;;39.10;12.30;;;;;;;3.06;83.39;101448.42;106072;1271;22637;-60
2022/01/14 04:08:07;;;;;;;40.20;14.80;;;;;;;3.05;83.55;101445.91;106126;1270;22722;-61
2022/01/14 04:10:38;;;;;;;37.10;12.70;;;;;;;3.02;83.50;101440.17;106166;1270;26021;-61
2022/01/14 04:13:15;;;;;;;42.30;14.40;;;;;;;3.00;83.58;101442.46;106066;1270;24853;-61
2022/01/14 04:15:47;;;;;;;39.40;15.30;;;;;;;2.97;83.63;101435.45;106038;1270;22556;-61
2022/01/14 04:18:20;;;;;;;36.20;14.20;;;;;;;2.95;83.60;101428.45;106061;1269;25354;-62
2022/01/14 04:20:51;;;;;;;42.20;14.20;;;;;;;2.92;83.55;101420.73;106022;1271;24326;-61
2022/01/14 04:23:23;;;;;;;43.40;14.20;;;;;;;2.90;83.52;101416.39;106033;1270;22630;-61
2022/01/14 04:25:56;;;;;;;40.90;15.20;;;;;;;2.89;83.54;101418.84;106119;1271;25268;-60
2022/01/14 04:28:30;;;;;;;44.10;15.00;;;;;;;2.87;83.56;101419.02;106163;1270;25329;-61
2022/01/14 04:31:01;;;;;;;42.50;15.30;;;;;;;2.85;83.42;101416.34;106139;1271;22655;-61
2022/01/14 04:33:34;;;;;;;35.50;12.40;;;;;;;2.83;83.32;101416.34;106158;1270;22566;-60
2022/01/14 04:36:06;;;;;;;39.80;16.10;;;;;;;2.81;83.16;101413.04;105987;1270;24266;-64
2022/01/14 04:38:38;;;;;;;42.00;14.60;;;;;;;2.79;83.21;101403.73;106147;1270;22558;-66
2022/01/14 04:41:10;;;;;;;38.70;15.10;;;;;;;2.78;83.18;101388.46;106045;1271;23192;-61
2022/01/14 04:43:40;;;;;;;44.40;15.60;;;;;;;2.77;83.18;101396.81;106079;1270;25423;-63
2022/01/14 04:46:36;;;;;;;45.70;16.10;;;;;;;2.75;83.33;101399.41;106164;1268;24001;-62
2022/01/14 04:49:07;;;;;;;46.80;15.60;;;;;;;2.74;83.23;101383.42;106065;1270;25371;-61
2022/01/14 04:51:38;;;;;;;42.10;16.10;;;;;;;2.73;83.24;101379.96;106007;1271;22535;-62
2022/01/14 04:54:11;;;;;;;40.50;14.70;;;;;;;2.73;83.27;101376.18;106125;1270;25387;-62
2022/01/14 04:56:42;;;;;;;36.70;13.30;;;;;;;2.72;83.28;101375.79;106085;1270;25450;-63
2022/01/14 04:59:12;;;;;;;39.40;15.50;;;;;;;2.70;83.30;101376.27;105953;1270;22651;-65
2022/01/14 05:01:45;;;;;;;37.50;15.30;;;;;;;2.69;83.26;101367.92;106101;1268;26575;-63
2022/01/14 05:04:17;;;;;;;38.60;13.60;;;;;;;2.68;83.27;101374.08;106100;1270;24269;-63
2022/01/14 05:06:55;;;;;;;47.30;17.40;;;;;;;2.68;83.32;101371.63;106118;1269;23786;-61
2022/01/14 05:09:33;;;;;;;43.10;16.00;;;;;;;2.68;83.29;101369.34;106337;1271;24225;-59
2022/01/14 05:12:09;;;;;;;44.20;15.70;;;;;;;2.68;83.34;101375.73;106235;1271;22586;-60
2022/01/14 05:14:40;;;;;;;41.20;15.70;;;;;;;2.68;83.35;101372.02;106158;1268;23131;-61
2022/01/14 05:17:11;;;;;;;41.50;13.90;;;;;;;2.68;83.37;101376.66;106057;1271;22546;-62
2022/01/14 05:19:42;;;;;;;39.00;14.20;;;;;;;2.68;83.44;101380.05;106057;1271;24381;-60
2022/01/14 05:22:14;;;;;;;43.60;16.30;;;;;;;2.68;83.46;101374.94;106033;1269;26565;-62
2022/01/14 05:24:45;;;;;;;44.90;17.30;;;;;;;2.68;83.42;101385.73;106085;1268;24990;-62
2022/01/14 05:27:16;;;;;;;43.30;14.20;;;;;;;2.69;83.51;101388.17;106280;1271;22574;-62
2022/01/14 05:29:48;;;;;;;48.00;14.20;;;;;;;2.68;83.51;101388.56;106023;1271;22522;-62
2022/01/14 05:32:20;;;;;;;47.70;15.70;;;;;;;2.68;83.50;101380.38;106489;1268;24237;-60
2022/01/14 05:34:51;;;;;;;42.40;14.60;;;;;;;2.68;83.73;101391.08;107562;1268;24485;-59
2022/01/14 05:37:22;;;;;;;39.60;14.10;;;;;;;2.68;83.64;101392.97;105842;1270;22556;-60
2022/01/14 05:39:53;;;;;;;41.80;15.20;;;;;;;2.68;83.61;101390.45;106006;1268;22571;-59
2022/01/14 05:42:23;;;;;;;38.80;15.20;;;;;;;2.68;83.78;101386.77;105993;1268;22551;-60
2022/01/14 05:44:54;;;;;;;36.00;13.30;;;;;;;2.69;83.70;101384.87;105993;1268;25257;-59
2022/01/14 05:47:25;;;;;;;37.70;14.80;;;;;;;2.69;83.89;101394.46;109887;1268;22472;-60
2022/01/14 05:49:56;;;;;;;43.60;15.10;;;;;;;2.70;83.89;101394.95;109925;1268;22455;-60
2022/01/14 05:52:26;;;;;;;41.70;14.00;;;;;;;2.70;83.85;101381.47;107382;1270;22547;-58
2022/01/14 05:54:57;;;;;;;43.50;14.80;;;;;;;2.71;83.87;101378.16;106182;1271;25267;-59
2022/01/14 05:57:28;;;;;;;40.20;15.00;;;;;;;2.71;84.04;101370.20;106036;1271;25374;-60
2022/01/14 05:59:58;;;;;;;33.80;11.00;;;;;;;2.72;84.01;101362.32;106067;1271;25335;-59
2022/01/14 06:02:30;;;;;;;42.00;15.60;;;;;;;2.72;84.24;101355.46;106060;1268;24262;-60
2022/01/14 06:05:01;;;;;;;44.20;13.80;;;;;;;2.71;84.20;101342.46;106185;1271;22701;-61
2022/01/14 06:07:32;;;;;;;40.00;13.30;;;;;;;2.71;84.30;101339.64;106539;1268;25252;-60
2022/01/14 06:10:04;;;;;;;43.70;14.70;;;;;;;2.70;84.44;101345.23;106156;1271;22560;-60
2022/01/14 06:12:35;;;;;;;37.90;13.00;;;;;;;2.70;84.42;101342.71;106128;1271;22556;-59
2022/01/14 06:15:06;;;;;;;38.30;13.20;;;;;;;2.70;84.53;101349.17;106036;1270;24294;-59
2022/01/14 06:17:38;;;;;;;40.10;16.90;;;;;;;2.69;84.43;101352.79;106098;1268;22532;-59
2022/01/14 06:20:13;;;;;;;36.60;12.80;;;;;;;2.70;84.51;101357.37;106068;1271;22657;-60
2022/01/14 06:22:45;;;;;;;34.70;11.80;;;;;;;2.70;84.62;101358.30;106179;1269;22577;-60
2022/01/14 06:25:16;;;;;;;34.00;13.00;;;;;;;2.69;84.74;101357.84;106401;1268;24278;-59
2022/01/14 06:27:47;;;;;;;39.50;12.60;;;;;;;2.69;84.74;101353.59;106117;1268;24417;-59
2022/01/14 06:30:18;;;;;;;31.20;11.50;;;;;;;2.69;84.80;101350.98;106075;1271;25254;-59
2022/01/14 06:32:54;;;;;;;34.00;13.00;;;;;;;2.69;84.95;101343.90;106257;1268;25298;-57
2022/01/14 06:35:25;;;;;;;43.50;14.10;;;;;;;2.68;85.01;101334.68;106182;1270;22537;-59
2022/01/14 06:37:59;;;;;;;39.60;14.20;;;;;;;2.68;84.98;101335.63;106170;1269;24227;-58
2022/01/14 06:40:30;;;;;;;36.60;12.70;;;;;;;2.67;84.97;101338.70;105960;1270;24230;-59
2022/01/14 06:43:01;;;;;;;41.70;15.80;;;;;;;2.69;85.07;101336.73;106191;1268;22586;-60
2022/01/14 06:45:33;;;;;;;39.90;14.60;;;;;;;2.69;84.97;101333.66;105986;1270;22564;-59
2022/01/14 06:48:04;;;;;;;36.10;12.90;;;;;;;2.69;85.09;101334.28;105994;1271;22544;-59
2022/01/14 06:50:35;;;;;;;40.00;13.90;;;;;;;2.69;85.27;101331.68;106055;1271;22550;-60
2022/01/14 06:53:08;;;;;;;33.50;11.00;;;;;;;2.69;85.43;101332.79;106075;1271;27435;-60
2022/01/14 06:55:39;;;;;;;34.40;9.00;;;;;;;2.69;85.22;101332.64;106101;1268;25270;-59
2022/01/14 06:58:10;;;;;;;37.10;15.00;;;;;;;2.69;85.44;101331.53;106022;1269;25271;-60
2022/01/14 07:00:42;;;;;;;39.50;14.60;;;;;;;2.68;85.46;101334.45;105989;1268;24227;-57
2022/01/14 07:03:13;;;;;;;36.90;14.20;;;;;;;2.68;85.38;101330.11;105996;1271;22564;-58
2022/01/14 07:05:44;;;;;;;41.20;14.40;;;;;;;2.68;85.40;101330.35;106045;1268;22614;-58
2022/01/14 07:08:15;;;;;;;43.00;16.20;;;;;;;2.70;85.51;101329.63;105980;1268;25365;-58
2022/01/14 07:10:46;;;;;;;45.10;15.30;;;;;;;2.69;85.54;101328.52;106005;1271;22616;-59
2022/01/14 07:13:17;;;;;;;36.60;13.30;;;;;;;2.70;85.54;101324.52;106175;1271;22555;-57
2022/01/14 07:15:48;;;;;;;40.70;14.10;;;;;;;2.71;85.56;101324.75;106162;1271;25314;-59
2022/01/14 07:18:19;;;;;;;38.70;13.50;;;;;;;2.72;85.58;101319.46;105989;1271;22592;-59
2022/01/14 07:20:50;;;;;;;44.80;15.60;;;;;;;2.73;85.67;101316.77;105993;1271;22588;-59
2022/01/14 07:23:21;;;;;;;37.60;13.20;;;;;;;2.74;85.80;101313.46;106051;1268;22656;-59
2022/01/14 07:25:52;;;;;;;41.80;14.00;;;;;;;2.75;85.76;101305.76;106060;1271;25330;-58
2022/01/14 07:28:24;;;;;;;36.40;11.10;;;;;;;2.76;85.99;101302.66;106391;1268;22554;-58
2022/01/14 07:30:55;;;;;;;34.70;12.10;;;;;;;2.78;86.00;101302.73;106051;1268;22542;-59
2022/01/14 07:33:27;;;;;;;42.00;14.50;;;;;;;2.79;86.10;101307.00;106067;1271;22526;-61
2022/01/14 07:35:58;;;;;;;35.70;11.90;;;;;;;2.80;86.16;101308.48;106093;1269;22581;-61
2022/01/14 07:38:29;;;;;;;37.10;12.80;;;;;;;2.81;86.13;101311.09;106070;1268;26281;-61
2022/01/14 07:41:02;;;;;;;28.20;8.60;;;;;;;2.83;86.31;101308.63;106002;1268;24425;-56
2022/01/14 07:43:35;;;;;;;36.70;11.90;;;;;;;2.84;86.38;101312.88;106033;1268;25492;-58
2022/01/14 07:46:07;;;;;;;37.00;13.10;;;;;;;2.85;86.27;101305.54;106108;1271;24315;-59
2022/01/14 07:48:37;;;;;;;36.00;12.00;;;;;;;2.86;86.36;101304.83;105990;1271;24265;-58
2022/01/14 07:51:09;;;;;;;31.00;11.30;;;;;;;2.87;86.45;101300.80;106114;1271;22532;-62
2022/01/14 07:53:40;;;;;;;35.50;12.00;;;;;;;2.88;86.52;101294.42;106004;1270;22580;-60
2022/01/14 07:56:13;;;;;;;39.60;12.50;;;;;;;2.89;86.48;101290.95;105971;1271;22551;-58
2022/01/14 07:58:44;;;;;;;32.90;11.30;;;;;;;2.90;86.55;101286.45;106006;1268;23084;-59
2022/01/14 08:01:15;;;;;;;33.60;12.70;;;;;;;2.91;86.45;101280.05;106217;1271;22528;-57
2022/01/14 08:03:46;;;;;;;36.50;12.60;;;;;;;2.92;86.44;101278.55;106044;1271;25320;-59
2022/01/14 08:06:17;;;;;;;39.00;13.70;;;;;;;2.93;86.61;101278.23;106027;1271;22533;-60
2022/01/14 08:08:48;;;;;;;31.30;10.90;;;;;;;2.95;86.60;101273.50;105997;1271;22481;-58
2022/01/14 08:11:19;;;;;;;30.90;10.10;;;;;;;2.96;86.62;101275.55;105971;1268;22990;-61
2022/01/14 08:13:50;;;;;;;39.70;13.20;;;;;;;2.97;86.53;101271.69;105997;1271;22547;-58
2022/01/14 08:16:22;;;;;;;29.20;9.60;;;;;;;2.99;86.66;101273.17;105985;1268;22531;-59
2022/01/14 08:18:53;;;;;;;40.30;13.30;;;;;;;3.00;86.59;101275.45;106037;1268;25511;-60
2022/01/14 08:21:24;;;;;;;39.20;14.90;;;;;;;3.01;86.71;101272.28;105967;1269;24234;-58
2022/01/14 08:23:55;;;;;;;41.20;14.90;;;;;;;3.03;86.70;101265.19;105970;1271;24274;-59
2022/01/14 08:26:27;;;;;;;44.80;15.80;;;;;;;3.04;86.67;101258.63;106138;1271;22773;-59
2022/01/14 08:28:59;;;;;;;34.40;12.50;;;;;;;3.06;86.82;101263.27;106092;1268;22544;-58
2022/01/14 08:31:30;;;;;;;34.10;13.70;;;;;;;3.07;86.64;101252.86;106219;1271;22528;-58
2022/01/14 08:34:01;;;;;;;37.70;14.00;;;;;;;3.08;86.66;101251.43;106194;1268;22601;-59
2022/01/14 08:36:32;;;;;;;31.40;11.90;;;;;;;3.10;86.61;101245.59;106053;1268;25347;-59
2022/01/14 08:39:03;;;;;;;35.80;13.10;;;;;;;3.10;86.67;101249.05;106121;1268;23058;-59
2022/01/14 08:41:34;;;;;;;32.60;11.90;;;;;;;3.11;86.56;101243.13;105971;1268;25312;-59
2022/01/14 08:44:07;;;;;;;29.10;9.50;;;;;;;3.12;86.60;101231.55;106151;1271;22548;-59
2022/01/14 08:46:37;;;;;;;28.90;11.60;;;;;;;3.12;86.58;101229.57;106232;1271;22551;-59
2022/01/14 08:49:09;;;;;;;37.60;14.50;;;;;;;3.13;86.67;101238.32;106023;1271;25347;-59
2022/01/14 08:51:40;;;;;;;32.30;11.30;;;;;;;3.14;86.57;101234.05;106078;1268;26000;-59
2022/01/14 08:54:11;;;;;;;32.00;11.00;;;;;;;3.15;86.64;101235.15;106038;1269;22547;-59
2022/01/14 08:56:44;;;;;;;31.00;12.10;;;;;;;3.16;86.49;101238.62;105941;1268;24415;-59
2022/01/14 08:59:17;;;;;;;29.20;9.00;;;;;;;3.17;86.56;101249.01;106021;1271;24613;-59
2022/01/14 09:01:49;;;;;;;26.60;8.00;;;;;;;3.17;86.51;101250.98;106250;1271;22672;-60
2022/01/14 09:04:20;;;;;;;28.90;10.10;;;;;;;3.16;86.58;101251.79;106318;1269;25257;-60
2022/01/14 09:06:51;;;;;;;29.60;9.70;;;;;;;3.16;86.60;101255.71;106193;1271;24799;-59
2022/01/14 09:09:22;;;;;;;29.30;9.60;;;;;;;3.16;86.62;101253.11;106030;1271;24262;-58
2022/01/14 09:11:54;;;;;;;26.80;10.50;;;;;;;3.17;86.57;101249.24;105939;1271;22552;-59
2022/01/14 09:14:25;;;;;;;28.80;9.50;;;;;;;3.18;86.59;101250.73;106150;1271;22560;-58
2022/01/14 09:16:57;;;;;;;27.60;9.60;;;;;;;3.19;86.72;101258.61;106202;1268;24240;-59
2022/01/14 09:19:28;;;;;;;26.00;8.40;;;;;;;3.20;86.79;101257.03;106271;1269;24377;-59
2022/01/14 09:21:59;;;;;;;25.90;9.70;;;;;;;3.21;86.66;101250.41;106140;1271;25349;-59
2022/01/14 09:24:30;;;;;;;28.40;10.70;;;;;;;3.22;86.62;101255.69;106161;1271;22564;-58
2022/01/14 09:27:01;;;;;;;27.40;9.20;;;;;;;3.23;86.65;101260.71;106130;1268;25342;-59
2022/01/14 09:29:32;;;;;;;27.40;9.80;;;;;;;3.24;86.61;101260.39;106206;1271;24802;-58
2022/01/14 09:32:03;;;;;;;29.20;9.70;;;;;;;3.24;86.55;101250.15;106328;1269;24226;-60
2022/01/14 09:34:36;;;;;;;27.10;10.80;;;;;;;3.24;86.67;101242.89;106394;1269;22540;-59
2022/01/14 09:37:07;;;;;;;33.40;11.20;;;;;;;3.24;86.64;101241.23;106200;1273;22557;-60
2022/01/14 09:39:43;;;;;;;29.70;9.00;;;;;;;3.25;86.53;101243.13;106134;1268;26602;-60
2022/01/14 09:42:14;;;;;;;28.00;11.80;;;;;;;3.26;86.55;101244.54;106089;1269;22684;-59
2022/01/14 09:44:46;;;;;;;30.60;12.20;;;;;;;3.27;86.54;101244.28;106105;1268;26513;-60
2022/01/14 09:47:21;;;;;;;29.50;10.80;;;;;;;3.28;86.62;101239.40;106226;1268;24258;-59
2022/01/14 09:49:52;;;;;;;28.00;10.00;;;;;;;3.29;86.59;101239.30;106218;1268;22531;-60
2022/01/14 09:52:23;;;;;;;26.50;9.10;;;;;;;3.30;86.56;101240.73;106165;1268;22580;-58
2022/01/14 09:54:54;;;;;;;29.70;10.80;;;;;;;3.29;86.48;101234.89;106023;1268;22522;-59
2022/01/14 09:57:25;;;;;;;31.70;11.90;;;;;;;3.29;86.51;101237.56;106084;1268;25314;-59
2022/01/14 09:59:55;;;;;;;29.90;11.70;;;;;;;3.30;86.60;101247.58;106113;1268;22533;-59
2022/01/14 10:02:38;;;;;;;27.80;10.20;;;;;;;3.31;86.63;101251.82;105994;1268;22573;-59
2022/01/14 10:05:30;;;;;;;29.80;9.80;;;;;;;3.31;86.61;101248.04;106005;1268;22551;-60
2022/01/14 10:08:14;;;;;;;28.00;10.30;;;;;;;3.31;86.59;101247.49;106028;1268;25255;-59
2022/01/14 10:10:50;;;;;;;32.80;11.50;;;;;;;3.30;86.66;101236.08;106274;1271;24224;-58
2022/01/14 10:13:24;;;;;;;30.00;10.60;;;;;;;3.29;86.63;101225.58;106445;1271;22688;-59
2022/01/14 10:16:00;;;;;;;32.80;11.30;;;;;;;3.29;86.69;101227.33;105994;1268;25393;-60
2022/01/14 10:18:33;;;;;;;26.90;10.00;;;;;;;3.27;86.67;101227.09;106117;1268;25309;-59
2022/01/14 10:21:06;;;;;;;33.70;12.30;;;;;;;3.27;86.73;101221.65;106349;1268;22572;-59
2022/01/14 10:23:45;;;;;;;29.60;10.50;;;;;;;3.28;86.77;101228.35;106135;1271;22613;-59
2022/01/14 10:26:17;;;;;;;26.50;9.70;;;;;;;3.28;86.73;101223.31;106194;1268;24074;-61
2022/01/14 10:29:00;;;;;;;31.20;12.00;;;;;;;3.29;86.72;101214.23;106301;1268;22564;-58
2022/01/14 10:31:39;;;;;;;37.30;14.50;;;;;;;3.29;86.76;101211.87;106124;1271;24224;-59
2022/01/14 10:34:17;;;;;;;34.60;13.10;;;;;;;3.28;86.76;101206.44;106094;1268;22557;-60
2022/01/14 10:36:51;;;;;;;33.30;13.20;;;;;;;3.27;86.73;101206.84;106326;1268;22546;-59
2022/01/14 10:39:24;;;;;;;40.60;14.30;;;;;;;3.27;86.78;101212.44;106937;1268;22534;-57
2022/01/14 10:41:57;;;;;;;37.20;14.70;;;;;;;3.26;86.78;101205.73;107111;1268;25238;-58
2022/01/14 10:44:31;;;;;;;36.40;13.80;;;;;;;3.25;86.79;101200.85;107052;1268;22671;-58
2022/01/14 10:47:16;;;;;;;32.00;12.00;;;;;;;3.25;86.83;101199.05;106965;1268;25373;-58
2022/01/14 10:49:49;;;;;;;37.50;13.70;;;;;;;3.25;86.80;101195.02;106906;1268;22556;-59
2022/01/14 10:52:22;;;;;;;36.80;14.40;;;;;;;3.25;86.82;101196.45;106931;1268;25383;-58
2022/01/14 10:54:55;;;;;;;32.80;11.60;;;;;;;3.24;86.80;101192.68;106944;1268;22481;-58
2022/01/14 10:57:29;;;;;;;29.40;12.50;;;;;;;3.24;86.79;101193.94;106817;1271;22566;-59
2022/01/14 11:00:17;;;;;;;31.30;12.10;;;;;;;3.24;86.82;101187.79;106927;1268;25428;-58
2022/01/14 11:02:49;;;;;;;37.00;13.20;;;;;;;3.24;86.91;101178.80;106887;1268;22564;-58
2022/01/14 11:05:23;;;;;;;31.40;12.30;;;;;;;3.25;86.83;101171.45;106919;1268;24001;-58
2022/01/14 11:07:54;;;;;;;30.40;12.10;;;;;;;3.25;86.90;101169.40;106986;1268;22633;-58
2022/01/14 11:10:29;;;;;;;33.30;14.00;;;;;;;3.26;86.81;101159.70;106879;1268;22558;-60
2022/01/14 11:13:01;;;;;;;29.80;12.40;;;;;;;3.27;86.81;101158.27;106850;1268;24253;-59
2022/01/14 11:15:34;;;;;;;34.70;13.40;;;;;;;3.27;86.80;101159.05;106910;1268;22647;-60
2022/01/14 11:18:07;;;;;;;33.40;12.90;;;;;;;3.28;86.88;101149.42;106879;1268;22621;-57
2022/01/14 11:23:24;;;;;;;35.90;14.30;;;;;;;3.28;86.76;101147.13;107609;1268;23871;-62
2022/01/14 11:26:01;;;;;;;35.10;14.40;;;;;;;3.28;86.73;101146.35;106914;1268;24326;-58
2022/01/14 11:28:35;;;;;;;33.90;12.90;;;;;;;3.27;86.72;101151.95;107062;1268;22697;-61
2022/01/14 11:31:27;;;;;;;48.80;16.50;;;;;;;3.26;86.73;101145.59;106722;1268;22552;-59
2022/01/14 11:34:01;;;;;;;39.90;16.00;;;;;;;3.25;86.74;101138.02;106985;1268;22634;-61
2022/01/14 11:36:53;;;;;;;36.50;13.70;;;;;;;3.24;86.70;101136.30;106880;1268;25383;-58
2022/01/14 11:39:26;;;;;;;46.10;20.00;;;;;;;3.21;86.84;101133.41;106822;1271;22503;-60
2022/01/14 11:41:59;;;;;;;40.40;16.80;;;;;;;3.19;86.83;101129.17;106861;1268;25835;-59